Terminal Aerodrome Forecast
Issued by NWS Kansas City/Pleasant Hill, MO

Home | Current Version | Previous Version | Text Only | Print | Product List | Glossary On
Versions: 1 2 3 4 5 6 7 8 9 10 11 12 13
000
FTUS43 KEAX 310500
TAFMCI
TAF
KMCI 310522Z 3106/0106 20008KT P6SM OVC120
     FM311000 18007KT 5SM -SHRA OVC012
     FM312200 15010KT 4SM -RA OVC007=

USA.gov is the U.S. government's official web portal to all federal, state and local government web resources and services.